Pagina principale
METAR-TAF:

METAR-TAF

Aeroporti :

Sanandaj, Iran

latitudine: 35-20N, longitudine: 047-00E, altezza: 1373 m

Osservazione

Il bollettino è stato emesso 11 minuti fa, alle 04:00 UTC
Vento 4 kt da sud
Temperature 7°C
Umidità 61%
Pressione 1011 hPa
Visibilità 10 km o più
Poco nuvoloso ad un'altezza di 3500 ft
Nubi sparse ad un'altezza di 8000 ft

METAR: OICS 300400Z 17004KT 9999 FEW035 SCT080 07/00 Q1010 A2984

Ora: 08:41 (04:11 UTC)


TAF: mancante

Osservazioni e previsioni meteorologiche di più di 4000 aeroporti (messaggi METAR e TAF).

Le stazioni disponibili sono rappresentate dai dischi gialli e rossi sulla carta.

Puntare il mouse per vedere il nome della stazione.

Clicca sopra per visualizzare le osservazioni e previsioni meteorologiche.

Per cambiare la mappa : fare clic sui pulsanti verdi con una croce nera per ingrandire, il pulsante verde con un trattino per diminuire, o sulla freccia verde per le mappe adiacenti.


METAR-TAF: